createdAt,value
2019-03-25T00:00:50.310Z,94.9
2019-03-25T00:02:50.578Z,94.2
2019-03-25T00:04:50.136Z,93.5
2019-03-25T00:06:50.459Z,93.0
2019-03-25T00:09:06.059Z,92.5
2019-03-25T00:10:49.831Z,92.6
2019-03-25T00:12:49.946Z,90.7
2019-03-25T00:14:50.131Z,90.6
2019-03-25T00:16:50.341Z,89.5
2019-03-25T00:18:50.439Z,89.2
2019-03-25T00:20:50.490Z,88.6
2019-03-25T00:22:50.502Z,88.5
2019-03-25T00:24:50.674Z,87.0
2019-03-25T00:26:49.971Z,86.9
2019-03-25T00:28:50.178Z,86.4
2019-03-25T00:30:50.287Z,85.9
2019-03-25T00:32:50.471Z,85.9
2019-03-25T00:34:50.772Z,85.8
2019-03-25T00:36:50.090Z,86.4
2019-03-25T00:38:50.165Z,85.9
2019-03-25T00:40:50.412Z,85.6
2019-03-25T00:42:50.477Z,86.0
2019-03-25T00:44:50.528Z,86.2
2019-03-25T00:46:49.908Z,86.3
2019-03-25T00:48:49.938Z,86.5
2019-03-25T00:50:50.008Z,86.2
2019-03-25T00:52:50.089Z,86.2
2019-03-25T00:54:50.796Z,86.5
2019-03-25T00:56:50.029Z,86.5
2019-03-25T00:58:50.080Z,86.7
2019-03-25T01:00:50.255Z,86.7
2019-03-25T01:02:50.417Z,87.3
2019-03-25T01:04:49.889Z,87.4
2019-03-25T01:06:50.155Z,87.8
2019-03-25T01:08:50.246Z,87.7
2019-03-25T01:10:50.325Z,87.7
2019-03-25T01:12:50.521Z,87.8
2019-03-25T01:14:50.664Z,88.1
2019-03-25T01:16:49.899Z,88.2
2019-03-25T01:18:50.083Z,88.6
2019-03-25T01:20:50.247Z,88.9
2019-03-25T01:22:50.337Z,88.5
2019-03-25T01:25:03.070Z,88.6
2019-03-25T01:26:50.640Z,88.8
2019-03-25T01:28:50.704Z,88.5
2019-03-25T01:30:49.807Z,88.6
2019-03-25T01:32:49.840Z,88.5
2019-03-25T01:34:50.419Z,88.5
2019-03-25T01:36:50.653Z,88.9
2019-03-25T01:38:50.633Z,88.9
2019-03-25T01:40:50.723Z,89.2
2019-03-25T01:42:50.724Z,89.1
2019-03-25T01:44:49.822Z,88.7
2019-03-25T01:46:50.059Z,89.1
2019-03-25T01:48:50.148Z,89.0
2019-03-25T01:50:50.206Z,89.1
2019-03-25T01:52:50.371Z,89.1
2019-03-25T01:54:50.439Z,89.1
2019-03-25T01:56:50.558Z,89.3
2019-03-25T01:58:50.566Z,89.5
2019-03-25T02:00:50.628Z,89.5
2019-03-25T02:02:50.662Z,90.0
2019-03-25T02:04:50.051Z,90.3
2019-03-25T02:06:50.416Z,90.5
2019-03-25T02:08:50.542Z,90.8
2019-03-25T02:10:50.594Z,90.6
2019-03-25T02:12:50.751Z,90.7
2019-03-25T02:14:50.014Z,90.8
2019-03-25T02:16:50.475Z,90.8
2019-03-25T02:18:50.664Z,90.8
2019-03-25T02:20:49.963Z,90.8
2019-03-25T02:22:51.183Z,90.9
2019-03-25T02:24:50.546Z,90.5
2019-03-25T02:26:49.943Z,90.7
2019-03-25T02:28:50.186Z,90.9
2019-03-25T02:30:50.395Z,90.9
2019-03-25T02:32:50.639Z,91.2
2019-03-25T02:34:50.188Z,91.2
2019-03-25T02:36:50.627Z,91.6
2019-03-25T02:38:49.927Z,91.4
2019-03-25T02:40:50.001Z,91.5
2019-03-25T02:42:50.055Z,92.0
2019-03-25T02:44:50.223Z,91.4
2019-03-25T02:46:50.623Z,91.1
2019-03-25T02:48:50.687Z,91.0
2019-03-25T02:50:49.796Z,90.7
2019-03-25T02:52:49.898Z,90.5
2019-03-25T02:54:50.179Z,90.4
2019-03-25T02:56:50.439Z,90.3
2019-03-25T02:58:50.561Z,90.9
2019-03-25T03:00:50.743Z,90.5
2019-03-25T03:02:49.794Z,90.5
2019-03-25T03:04:50.359Z,90.6
2019-03-25T03:06:50.672Z,90.5
2019-03-25T03:08:50.410Z,90.7
2019-03-25T03:10:50.580Z,91.1
2019-03-25T03:12:50.710Z,91.3
2019-03-25T03:14:49.833Z,91.0
2019-03-25T03:16:50.065Z,90.9
2019-03-25T03:18:50.276Z,91.1
2019-03-25T03:20:50.527Z,90.5
2019-03-25T03:22:50.733Z,90.7
2019-03-25T03:24:49.856Z,89.7
2019-03-25T03:26:50.242Z,89.2
2019-03-25T03:28:50.515Z,89.1
2019-03-25T03:30:50.755Z,88.9
2019-03-25T03:32:49.892Z,89.4
2019-03-25T03:34:50.737Z,89.5
2019-03-25T03:36:50.039Z,88.9
2019-03-25T03:38:50.181Z,89.0
2019-03-25T03:40:50.298Z,89.1
2019-03-25T03:42:50.400Z,89.2
2019-03-25T03:44:50.438Z,89.2
2019-03-25T03:46:50.624Z,89.5
2019-03-25T03:48:50.774Z,89.7
2019-03-25T03:50:49.840Z,89.8
2019-03-25T03:52:50.090Z,90.0
2019-03-25T03:54:50.234Z,90.2
2019-03-25T03:56:50.451Z,90.9
2019-03-25T03:58:50.627Z,90.8
2019-03-25T04:00:50.857Z,91.2
2019-03-25T04:02:50.009Z,91.4
2019-03-25T04:04:50.590Z,91.8
2019-03-25T04:06:50.024Z,91.8
2019-03-25T04:08:50.101Z,91.8
2019-03-25T04:10:50.233Z,91.6
2019-03-25T04:12:50.335Z,91.6
2019-03-25T04:14:50.469Z,91.4
2019-03-25T04:16:50.768Z,91.3
2019-03-25T04:18:49.877Z,91.2
2019-03-25T04:20:50.053Z,91.2
2019-03-25T04:22:50.207Z,90.8
2019-03-25T04:24:50.406Z,90.4
2019-03-25T04:26:50.604Z,90.4
2019-03-25T04:28:50.727Z,90.2
2019-03-25T04:30:49.840Z,90.2
2019-03-25T04:32:50.017Z,90.1
2019-03-25T04:34:50.529Z,89.5
2019-03-25T04:36:49.952Z,88.8
2019-03-25T04:38:50.000Z,88.2
2019-03-25T04:40:50.189Z,87.8
2019-03-25T04:42:50.292Z,87.3
2019-03-25T04:44:50.348Z,87.1
2019-03-25T04:46:50.620Z,86.8
2019-03-25T04:48:50.760Z,86.9
2019-03-25T04:50:49.796Z,86.9
2019-03-25T04:52:49.835Z,85.9
2019-03-25T04:54:50.042Z,85.4
2019-03-25T04:56:50.399Z,85.4
2019-03-25T04:58:50.522Z,85.0
2019-03-25T05:00:50.691Z,83.8
2019-03-25T05:02:49.806Z,84.4
2019-03-25T05:04:50.359Z,83.7
2019-03-25T05:06:50.566Z,83.5
2019-03-25T05:08:50.633Z,84.5
2019-03-25T05:10:50.703Z,84.9
2019-03-25T05:12:49.934Z,84.2
2019-03-25T05:14:50.076Z,84.9
2019-03-25T05:16:50.332Z,84.3
2019-03-25T05:18:50.492Z,84.4
2019-03-25T05:20:50.667Z,84.2
2019-03-25T05:22:49.817Z,83.0
2019-03-25T05:24:49.966Z,83.1
2019-03-25T05:26:51.860Z,82.8
2019-03-25T05:28:50.016Z,81.7
2019-03-25T05:30:50.014Z,81.5
2019-03-25T05:32:50.238Z,81.2
2019-03-25T05:34:50.582Z,81.2
2019-03-25T05:36:49.821Z,80.8
2019-03-25T05:38:49.887Z,80.7
2019-03-25T05:40:49.936Z,80.1
2019-03-25T05:42:49.912Z,80.0
2019-03-25T05:44:50.028Z,80.5
2019-03-25T05:46:50.266Z,79.9
2019-03-25T05:48:50.350Z,79.3
2019-03-25T05:50:50.441Z,79.0
2019-03-25T05:52:50.478Z,79.1
2019-03-25T05:54:50.585Z,78.6
2019-03-25T05:56:49.816Z,78.0
2019-03-25T05:58:49.903Z,77.9
2019-03-25T06:00:49.927Z,77.9
2019-03-25T06:02:49.985Z,77.9
2019-03-25T06:04:50.543Z,77.3
2019-03-25T06:06:52.620Z,77.1
2019-03-25T06:08:50.786Z,76.2
2019-03-25T06:10:49.874Z,76.4
2019-03-25T06:12:50.066Z,75.7
2019-03-25T06:14:50.216Z,75.3
2019-03-25T06:16:50.388Z,74.7
2019-03-25T06:18:50.536Z,74.3
2019-03-25T06:20:50.757Z,74.0
2019-03-25T06:22:49.774Z,73.8
2019-03-25T06:24:49.942Z,73.3
2019-03-25T06:26:50.204Z,72.8
2019-03-25T06:28:50.286Z,72.5
2019-03-25T06:30:50.355Z,72.5
2019-03-25T06:32:50.387Z,72.4
2019-03-25T06:34:49.903Z,71.6
2019-03-25T06:36:50.713Z,70.7
2019-03-25T06:38:49.861Z,67
2019-03-25T06:40:49.869Z,70.3
2019-03-25T06:42:49.923Z,70.2
2019-03-25T06:44:49.926Z,70.1
2019-03-25T06:46:50.139Z,69.9
2019-03-25T06:48:50.209Z,69.7
2019-03-25T06:50:50.338Z,69.6
2019-03-25T06:52:50.449Z,69.4
2019-03-25T06:54:50.493Z,69.1
2019-03-25T06:56:50.740Z,69.0
2019-03-25T06:58:49.852Z,68.6
2019-03-25T07:00:49.927Z,68.8
2019-03-25T07:02:50.028Z,68.2
2019-03-25T07:04:50.506Z,68.3
2019-03-25T07:06:50.635Z,67.5
2019-03-25T07:08:50.760Z,67.1
2019-03-25T07:10:49.989Z,67.1
2019-03-25T07:12:49.985Z,66.0
2019-03-25T07:14:50.062Z,65.6
2019-03-25T07:16:50.201Z,65.7
2019-03-25T07:18:50.201Z,67.0
2019-03-25T07:20:50.322Z,65.5
2019-03-25T07:22:50.367Z,64.9
2019-03-25T07:24:50.442Z,64.6
2019-03-25T07:26:50.664Z,64.2
2019-03-25T07:28:49.867Z,64.6
2019-03-25T07:30:49.871Z,64.2
2019-03-25T07:32:49.975Z,64.2
2019-03-25T07:34:50.251Z,63.9
2019-03-25T07:36:50.354Z,64.5
2019-03-25T07:38:50.412Z,64.5
2019-03-25T07:40:50.516Z,64.7
2019-03-25T07:42:50.676Z,64.4
2019-03-25T07:44:49.783Z,64.3
2019-03-25T07:46:50.116Z,63.9
2019-03-25T07:48:50.166Z,64.2
2019-03-25T07:50:50.501Z,63.8
2019-03-25T07:52:50.202Z,64.1
2019-03-25T07:54:50.316Z,63.9
2019-03-25T07:56:50.479Z,63.7
2019-03-25T07:58:50.622Z,63.1
2019-03-25T08:00:49.941Z,63.4
2019-03-25T08:02:50.028Z,62.5
2019-03-25T08:04:50.480Z,63.8
2019-03-25T08:06:50.716Z,63.6
2019-03-25T08:08:49.918Z,63.8
2019-03-25T08:10:50.075Z,63.4
2019-03-25T08:12:50.191Z,63.0
2019-03-25T08:14:50.663Z,62.9
2019-03-25T08:16:50.251Z,62.4
2019-03-25T08:18:50.464Z,62.6
2019-03-25T08:20:50.499Z,64.1
2019-03-25T08:22:50.618Z,64.0
2019-03-25T08:24:50.672Z,64.3
2019-03-25T08:26:49.799Z,65.8
2019-03-25T08:28:49.831Z,65.6
2019-03-25T08:30:49.978Z,66.4
2019-03-25T08:32:49.987Z,69.1
2019-03-25T08:34:50.710Z,70.5
2019-03-25T08:36:49.977Z,71.4
2019-03-25T08:38:49.904Z,71.7
2019-03-25T08:40:49.988Z,72.3
2019-03-25T08:42:49.939Z,72.2
2019-03-25T08:44:50.029Z,72.4
2019-03-25T08:46:50.141Z,73.2
2019-03-25T08:48:50.181Z,73.4
2019-03-25T08:50:50.336Z,73.4
2019-03-25T08:52:50.461Z,73.1
2019-03-25T08:54:50.512Z,72.4
2019-03-25T08:56:50.799Z,72.0
2019-03-25T08:58:50.208Z,70.6
2019-03-25T09:00:50.539Z,70.5
2019-03-25T09:02:50.822Z,70.3
2019-03-25T09:04:50.172Z,70.0
2019-03-25T09:06:50.322Z,69.6
2019-03-25T09:08:50.336Z,69.8
2019-03-25T09:10:50.352Z,69.7
2019-03-25T09:12:50.411Z,70.0
2019-03-25T09:14:50.520Z,69.8
2019-03-25T09:16:50.645Z,70.2
2019-03-25T09:18:49.774Z,70.4
2019-03-25T09:20:49.832Z,70.3
2019-03-25T09:22:49.873Z,71.0
2019-03-25T09:24:49.914Z,70.7
2019-03-25T09:26:50.094Z,71.4
2019-03-25T09:28:50.130Z,71.2
2019-03-25T09:30:50.077Z,71.2
2019-03-25T09:32:50.382Z,71.2
2019-03-25T09:34:50.716Z,71.1
2019-03-25T09:36:49.951Z,71.1
2019-03-25T09:38:49.960Z,71.3
2019-03-25T09:40:49.985Z,71.7
2019-03-25T09:42:50.042Z,70.9
2019-03-25T09:44:50.158Z,70.5
2019-03-25T09:46:50.359Z,70.8
2019-03-25T09:48:50.439Z,71.2
2019-03-25T09:50:50.498Z,72.5
2019-03-25T09:52:50.636Z,73.5
2019-03-25T09:54:50.649Z,73.7
2019-03-25T09:56:50.758Z,74.3
2019-03-25T09:58:49.863Z,73.7
2019-03-25T10:00:52.611Z,73.7
2019-03-25T10:02:50.788Z,73.7
2019-03-25T10:04:50.328Z,72.2
2019-03-25T10:06:50.594Z,71.7
2019-03-25T10:08:50.934Z,71.4
2019-03-25T10:10:50.135Z,70.3
2019-03-25T10:12:50.447Z,70.1
2019-03-25T10:14:50.595Z,69.7
2019-03-25T10:16:49.965Z,69.9
2019-03-25T10:18:50.142Z,68.4
2019-03-25T10:20:50.405Z,68.7
2019-03-25T10:22:50.615Z,68.1
2019-03-25T10:24:50.896Z,68.3
2019-03-25T10:26:50.250Z,69.9
2019-03-25T10:28:50.521Z,69.5
2019-03-25T10:30:50.658Z,70.4
2019-03-25T10:32:50.681Z,70.6
2019-03-25T10:34:50.053Z,70.5
2019-03-25T10:36:50.249Z,70.5
2019-03-25T10:38:50.297Z,70.5
2019-03-25T10:40:50.319Z,70.6
2019-03-25T10:42:50.448Z,69.6
2019-03-25T10:44:50.484Z,69.5
2019-03-25T10:46:50.750Z,70.4
2019-03-25T10:48:49.863Z,70.7
2019-03-25T10:50:49.942Z,71.1
2019-03-25T10:52:50.039Z,72.3
2019-03-25T10:54:50.728Z,74.0
2019-03-25T10:56:50.117Z,76.0
2019-03-25T10:58:58.929Z,78.8
2019-03-25T11:00:50.547Z,80.5
2019-03-25T11:02:50.634Z,83.2
2019-03-25T11:04:50.045Z,85.1
2019-03-25T11:06:50.225Z,87.7
2019-03-25T11:08:50.237Z,89.6
2019-03-25T11:10:50.317Z,92.3
2019-03-25T11:12:50.441Z,93.5
2019-03-25T11:14:50.434Z,96.3
2019-03-25T11:16:49.829Z,95.7
2019-03-25T11:18:49.884Z,96.7
2019-03-25T11:20:49.939Z,98.2
2019-03-25T11:22:49.949Z,98.5
2019-03-25T11:24:49.983Z,99.0
2019-03-25T11:26:50.457Z,100.0
2019-03-25T11:28:50.647Z,99.9
2019-03-25T11:30:50.804Z,100.0
2019-03-25T11:32:50.897Z,100.0
2019-03-25T11:34:50.423Z,99.1
2019-03-25T11:36:50.896Z,97.9
2019-03-25T11:38:50.022Z,97.5
2019-03-25T11:40:50.249Z,98.1
2019-03-25T11:42:50.421Z,97.3
2019-03-25T11:44:50.621Z,96.5
2019-03-25T11:46:50.932Z,92.8
2019-03-25T11:48:50.187Z,76
2019-03-25T11:50:50.379Z,76
2019-03-25T11:52:50.513Z,78
2019-03-25T11:54:50.669Z,79
2019-03-25T11:56:49.998Z,79
2019-03-25T11:58:50.163Z,79
2019-03-25T12:00:50.328Z,78
2019-03-25T12:02:50.506Z,79
2019-03-25T12:04:50.105Z,78
2019-03-25T12:06:50.334Z,78
2019-03-25T12:08:50.414Z,77
2019-03-25T12:10:50.491Z,89.6
2019-03-25T12:12:50.567Z,89.9
2019-03-25T12:14:50.750Z,90.6
2019-03-25T12:16:50.093Z,94.8
2019-03-25T12:18:50.190Z,96.3
2019-03-25T12:20:50.326Z,97.1
2019-03-25T12:22:50.377Z,98.4
2019-03-25T12:24:50.414Z,98.1
2019-03-25T12:26:50.626Z,95.8
2019-03-25T12:28:50.648Z,95.8
2019-03-25T12:30:50.650Z,94.4
2019-03-25T12:32:50.724Z,96.1
2019-03-25T12:34:50.395Z,94.8
2019-03-25T12:36:50.730Z,94.5
2019-03-25T12:38:50.986Z,94.1
2019-03-25T12:40:50.362Z,90.7
2019-03-25T12:42:50.615Z,89.8
2019-03-25T12:44:50.883Z,88.3
2019-03-25T12:46:50.178Z,87.3
2019-03-25T12:48:50.613Z,85.1
2019-03-25T12:50:50.784Z,81
2019-03-25T12:52:49.971Z,81
2019-03-25T12:54:50.175Z,81
2019-03-25T12:56:50.521Z,81
2019-03-25T12:58:50.730Z,81
2019-03-25T13:00:50.912Z,80
2019-03-25T13:02:50.145Z,80
2019-03-25T13:04:50.798Z,80
2019-03-25T13:06:50.278Z,79
2019-03-25T13:08:50.576Z,79
2019-03-25T13:10:50.765Z,79
2019-03-25T13:12:50.005Z,79
2019-03-25T13:14:50.225Z,78
2019-03-25T13:16:50.633Z,76
2019-03-25T13:18:50.894Z,78
2019-03-25T13:20:50.056Z,76
2019-03-25T13:22:50.236Z,76
2019-03-25T13:24:50.505Z,76
2019-03-25T13:26:50.798Z,74
2019-03-25T13:29:02.732Z,72
2019-03-25T13:30:50.020Z,70
2019-03-25T13:32:50.204Z,70
2019-03-25T13:34:50.917Z,72
2019-03-25T13:36:50.279Z,73
2019-03-25T13:38:50.551Z,72
2019-03-25T13:40:50.851Z,73
2019-03-25T13:42:50.041Z,73
2019-03-25T13:44:50.267Z,74
2019-03-25T13:46:50.575Z,74
2019-03-25T13:48:50.788Z,73
2019-03-25T13:50:50.092Z,73
2019-03-25T13:52:50.450Z,71
2019-03-25T13:54:50.635Z,69
2019-03-25T13:56:50.034Z,68
2019-03-25T13:58:50.172Z,72.7
2019-03-25T14:00:50.227Z,75.7
2019-03-25T14:02:50.267Z,77.0
2019-03-25T14:04:50.571Z,80.9
2019-03-25T14:06:49.801Z,81.6
2019-03-25T14:08:49.794Z,87.4
2019-03-25T14:10:49.850Z,91.0
2019-03-25T14:12:52.370Z,96.6
2019-03-25T14:14:50.421Z,98.9
2019-03-25T14:16:50.488Z,100.0
2019-03-25T14:18:50.571Z,100.0
2019-03-25T14:20:50.625Z,100.0
2019-03-25T14:22:50.661Z,100.0
2019-03-25T14:24:50.657Z,100.0
2019-03-25T14:26:49.812Z,100.0
2019-03-25T14:28:49.814Z,100.0
2019-03-25T14:30:50.143Z,100.0
2019-03-25T14:32:50.446Z,100.0
2019-03-25T14:34:50.196Z,100.0
2019-03-25T14:36:50.491Z,100.0
2019-03-25T14:38:50.716Z,100.0
2019-03-25T14:40:50.879Z,78
2019-03-25T14:42:50.089Z,79
2019-03-25T14:44:50.378Z,80
2019-03-25T14:46:50.637Z,80
2019-03-25T14:48:50.847Z,80
2019-03-25T14:50:50.069Z,80
2019-03-25T14:52:50.284Z,81
2019-03-25T14:54:50.538Z,81
2019-03-25T14:56:49.933Z,81
2019-03-25T14:58:50.134Z,81
2019-03-25T15:00:50.334Z,81
2019-03-25T15:02:50.501Z,82
2019-03-25T15:04:50.031Z,82
2019-03-25T15:06:50.342Z,82
2019-03-25T15:08:50.548Z,82
2019-03-25T15:10:54.458Z,82
2019-03-25T15:12:50.702Z,82
2019-03-25T15:14:50.982Z,83
2019-03-25T15:16:50.270Z,83
2019-03-25T15:18:50.436Z,83
2019-03-25T15:20:50.468Z,82
2019-03-25T15:22:50.516Z,82
2019-03-25T15:24:50.574Z,81
2019-03-25T15:26:50.697Z,81
2019-03-25T15:28:50.741Z,89.8
2019-03-25T15:30:49.864Z,94.8
2019-03-25T15:32:49.890Z,95.9
2019-03-25T15:34:50.549Z,96.5
2019-03-25T15:36:49.813Z,96.6
2019-03-25T15:38:49.832Z,93.9
2019-03-25T15:40:49.922Z,95.1
2019-03-25T15:42:49.933Z,94.2
2019-03-25T15:44:50.072Z,94.7
2019-03-25T15:46:56.463Z,93.0
2019-03-25T15:48:50.540Z,91.7
2019-03-25T15:50:50.588Z,93.0
2019-03-25T15:52:50.677Z,92.3
2019-03-25T15:54:50.698Z,92.3
2019-03-25T15:56:49.931Z,91.7
2019-03-25T15:58:50.096Z,92.2
2019-03-25T16:00:50.251Z,91.7
2019-03-25T16:02:50.318Z,82
2019-03-25T16:04:50.624Z,82
2019-03-25T16:06:49.873Z,82
2019-03-25T16:08:50.138Z,82
2019-03-25T16:10:52.472Z,83
2019-03-25T16:12:50.739Z,83
2019-03-25T16:14:49.983Z,83
2019-03-25T16:16:50.241Z,83
2019-03-25T16:18:50.391Z,82
2019-03-25T16:20:50.398Z,82
2019-03-25T16:22:50.483Z,82
2019-03-25T16:24:50.519Z,81
2019-03-25T16:26:50.700Z,81
2019-03-25T16:28:49.806Z,81
2019-03-25T16:30:59.647Z,81
2019-03-25T16:32:50.735Z,89.6
2019-03-25T16:34:50.160Z,88.3
2019-03-25T16:36:50.277Z,88.2
2019-03-25T16:38:50.289Z,87.8
2019-03-25T16:40:50.338Z,87.6
2019-03-25T16:42:50.428Z,86.6
2019-03-25T16:44:50.442Z,87.5
2019-03-25T16:46:50.621Z,87.9
2019-03-25T16:48:49.760Z,87.1
2019-03-25T16:50:50.806Z,87.2
2019-03-25T16:52:49.827Z,88.4
2019-03-25T16:54:49.876Z,88.0
2019-03-25T16:56:50.047Z,88.2
2019-03-25T16:58:50.132Z,87.8
2019-03-25T17:00:50.221Z,87.4
2019-03-25T17:02:50.228Z,88.5
2019-03-25T17:04:50.611Z,88.3
2019-03-25T17:06:50.774Z,88.8
2019-03-25T17:08:50.727Z,88.7
2019-03-25T17:10:49.871Z,88.3
2019-03-25T17:12:49.960Z,89.0
2019-03-25T17:14:50.024Z,89.0
2019-03-25T17:16:50.237Z,89.2
2019-03-25T17:18:50.379Z,88.2
2019-03-25T17:20:50.490Z,89.4
2019-03-25T17:22:51.101Z,91.6
2019-03-25T17:24:50.159Z,90.9
2019-03-25T17:26:50.249Z,90.0
2019-03-25T17:28:50.253Z,90.1
2019-03-25T17:30:50.378Z,90.7
2019-03-25T17:32:50.448Z,92.6
2019-03-25T17:34:50.005Z,91.0
2019-03-25T17:36:50.228Z,90.4
2019-03-25T17:38:50.275Z,92.6
2019-03-25T17:40:50.417Z,92.0
2019-03-25T17:42:50.462Z,92.0
2019-03-25T17:44:50.511Z,92.6
2019-03-25T17:46:50.761Z,92.6
2019-03-25T17:48:50.790Z,93.8
2019-03-25T17:50:49.894Z,94.2
2019-03-25T17:52:50.039Z,94.1
2019-03-25T17:54:50.329Z,93.9
2019-03-25T17:56:50.448Z,94.5
2019-03-25T17:58:50.430Z,94.1
2019-03-25T18:00:50.512Z,92.3
2019-03-25T18:02:50.512Z,92.6
2019-03-25T18:04:49.885Z,93.8
2019-03-25T18:06:50.134Z,90.9
2019-03-25T18:08:50.257Z,91.8
2019-03-25T18:10:50.294Z,88.9
2019-03-25T18:12:50.465Z,89.5
2019-03-25T18:14:50.513Z,91.0
2019-03-25T18:16:49.816Z,91.4
2019-03-25T18:18:49.803Z,89.2
2019-03-25T18:20:49.899Z,90.2
2019-03-25T18:22:49.905Z,88.3
2019-03-25T18:24:50.035Z,88.7
2019-03-25T18:26:50.329Z,88.4
2019-03-25T18:28:50.388Z,89.1
2019-03-25T18:30:50.437Z,89.0
2019-03-25T18:32:50.488Z,88.9
2019-03-25T18:34:49.856Z,90.4
2019-03-25T18:36:50.028Z,90.3
2019-03-25T18:38:50.190Z,90.7
2019-03-25T18:40:50.290Z,90.6
2019-03-25T18:42:50.362Z,91.0
2019-03-25T18:44:50.365Z,91.7
2019-03-25T18:46:50.665Z,91.9
2019-03-25T18:48:50.655Z,91.9
2019-03-25T18:50:49.823Z,92.0
2019-03-25T18:52:49.792Z,93.2
2019-03-25T18:54:49.951Z,92.6
2019-03-25T18:56:50.105Z,92.8
2019-03-25T18:58:50.237Z,93.1
2019-03-25T19:00:50.382Z,93.0
2019-03-25T19:02:50.422Z,93.3
2019-03-25T19:04:49.927Z,94.2
2019-03-25T19:06:50.182Z,94.2
2019-03-25T19:08:50.333Z,94.8
2019-03-25T19:10:50.415Z,95.1
2019-03-25T19:12:50.589Z,96.3
2019-03-25T19:14:50.764Z,97.0
2019-03-25T19:16:49.952Z,97.4
2019-03-25T19:18:49.982Z,97.6
2019-03-25T19:20:49.991Z,97.6
2019-03-25T19:22:50.123Z,98.4
2019-03-25T19:24:50.205Z,98.8
2019-03-25T19:26:50.547Z,99.3
2019-03-25T19:28:50.696Z,99.5
2019-03-25T19:30:50.820Z,99.5
2019-03-25T19:32:49.915Z,99.2
2019-03-25T19:34:50.434Z,98.7
2019-03-25T19:36:50.740Z,99.1
2019-03-25T19:38:50.010Z,99.0
2019-03-25T19:40:50.070Z,99.4
2019-03-25T19:42:50.154Z,99.4
2019-03-25T19:44:50.481Z,98.5
2019-03-25T19:46:50.766Z,98.5
2019-03-25T19:48:50.013Z,98.0
2019-03-25T19:50:50.238Z,97.8
2019-03-25T19:52:50.332Z,98.0
2019-03-25T19:54:50.821Z,98.0
2019-03-25T19:56:50.009Z,98.3
2019-03-25T19:58:50.358Z,98.3
2019-03-25T20:00:50.435Z,98.0
2019-03-25T20:02:50.654Z,96.7
2019-03-25T20:04:50.016Z,96.4
2019-03-25T20:06:50.487Z,96.6
2019-03-25T20:08:50.719Z,95.4
2019-03-25T20:10:49.828Z,94.5
2019-03-25T20:12:49.931Z,93.8
2019-03-25T20:14:50.006Z,93.7
2019-03-25T20:16:50.358Z,93.7
2019-03-25T20:18:50.578Z,93.4
2019-03-25T20:20:50.700Z,92.7
2019-03-25T20:22:49.949Z,92.7
2019-03-25T20:24:49.987Z,91.9
2019-03-25T20:26:50.217Z,91.8
2019-03-25T20:28:50.545Z,92.4
2019-03-25T20:30:50.668Z,91.3
2019-03-25T20:32:49.937Z,90.7
2019-03-25T20:34:50.485Z,89.9
2019-03-25T20:36:50.757Z,89.7
2019-03-25T20:38:50.241Z,90.2
2019-03-25T20:40:50.356Z,89.9
2019-03-25T20:42:50.633Z,89.7
2019-03-25T20:44:49.905Z,90.0
2019-03-25T20:46:50.214Z,88.8
2019-03-25T20:48:50.382Z,89.3
2019-03-25T20:50:50.585Z,88.6
2019-03-25T20:52:50.685Z,88.3
2019-03-25T20:54:50.894Z,89.5
2019-03-25T20:56:50.299Z,89.5
2019-03-25T20:58:50.395Z,89.4
2019-03-25T21:00:50.800Z,90.0
2019-03-25T21:02:49.842Z,90.7
2019-03-25T21:04:50.540Z,91.3
2019-03-25T21:06:50.678Z,91.3
2019-03-25T21:08:50.930Z,93.9
2019-03-25T21:10:50.098Z,93.9
2019-03-25T21:12:50.300Z,95.3
2019-03-25T21:14:50.637Z,95.5
2019-03-25T21:16:49.819Z,97.7
2019-03-25T21:18:52.901Z,98.4
2019-03-25T21:20:50.209Z,99.0
2019-03-25T21:22:50.370Z,99.3
2019-03-25T21:24:50.556Z,99.4
2019-03-25T21:26:50.882Z,99.2
2019-03-25T21:28:50.017Z,100.0
2019-03-25T21:30:50.269Z,100.0
2019-03-25T21:32:59.320Z,100.0
2019-03-25T21:34:49.948Z,100.0
2019-03-25T21:36:50.447Z,100.0
2019-03-25T21:38:50.700Z,100.0
2019-03-25T21:40:50.877Z,100.0
2019-03-25T21:42:50.239Z,100.0
2019-03-25T21:44:50.413Z,100.0
2019-03-25T21:46:50.960Z,100.0
2019-03-25T21:48:50.257Z,100.0
2019-03-25T21:50:50.624Z,100.0
2019-03-25T21:52:50.948Z,100.0
2019-03-25T21:54:50.108Z,100.0
2019-03-25T21:56:50.539Z,100.0
2019-03-25T21:58:50.763Z,100.0
2019-03-25T22:00:50.196Z,100.0
2019-03-25T22:02:50.260Z,100.0
2019-03-25T22:04:50.778Z,100.0
2019-03-25T22:06:49.978Z,100.0
2019-03-25T22:08:50.069Z,100.0
2019-03-25T22:10:50.085Z,100.0
2019-03-25T22:12:50.157Z,100.0
2019-03-25T22:14:50.264Z,100.0
2019-03-25T22:16:50.433Z,100.0
2019-03-25T22:18:50.466Z,100.0
2019-03-25T22:20:50.586Z,100.0
2019-03-25T22:22:50.580Z,100.0
2019-03-25T22:24:50.662Z,100.0
2019-03-25T22:26:49.918Z,100.0
2019-03-25T22:28:49.977Z,100.0
2019-03-25T22:30:50.031Z,100.0
2019-03-25T22:32:50.142Z,100.0
2019-03-25T22:34:50.835Z,100.0
2019-03-25T22:36:50.030Z,100.0
2019-03-25T22:38:50.043Z,100.0
2019-03-25T22:40:50.186Z,100.0
2019-03-25T22:42:50.280Z,100.0
2019-03-25T22:44:50.304Z,100.0
2019-03-25T22:46:50.472Z,100.0
2019-03-25T22:48:50.468Z,100.0
2019-03-25T22:50:50.485Z,100.0
2019-03-25T22:52:50.550Z,100.0
2019-03-25T22:54:50.494Z,100.0
2019-03-25T22:56:50.653Z,100.0
2019-03-25T22:58:50.702Z,100.0
2019-03-25T23:00:49.850Z,100.0
2019-03-25T23:02:49.891Z,100.0
2019-03-25T23:04:50.488Z,100.0
2019-03-25T23:06:50.697Z,100.0
2019-03-25T23:08:49.875Z,100.0
2019-03-25T23:10:49.829Z,100.0
2019-03-25T23:12:49.981Z,100.0
2019-03-25T23:14:50.000Z,100.0
2019-03-25T23:16:50.208Z,100.0
2019-03-25T23:18:50.261Z,100.0
2019-03-25T23:20:50.373Z,100.0
2019-03-25T23:22:50.507Z,100.0
2019-03-25T23:24:50.583Z,100.0
2019-03-25T23:26:49.767Z,100.0
2019-03-25T23:28:49.839Z,100.0
2019-03-25T23:30:49.866Z,100.0
2019-03-25T23:32:49.986Z,100.0
2019-03-25T23:34:50.582Z,100.0
2019-03-25T23:36:50.741Z,100.0
2019-03-25T23:38:49.850Z,100.0
2019-03-25T23:40:49.835Z,100.0
2019-03-25T23:42:49.979Z,100.0
2019-03-25T23:44:49.982Z,100.0
2019-03-25T23:46:50.238Z,100.0
2019-03-25T23:48:50.313Z,100.0
2019-03-25T23:50:50.343Z,100.0
2019-03-25T23:52:50.482Z,100.0
2019-03-25T23:54:50.549Z,100.0
2019-03-25T23:56:49.853Z,100.0
2019-03-25T23:58:49.939Z,100.0
